createdAt,value
2022-11-27T00:01:28.373Z,102660.59
2022-11-27T00:03:55.766Z,102663.25
2022-11-27T00:06:25.503Z,102653.66
2022-11-27T00:08:51.910Z,102657.13
2022-11-27T00:11:23.507Z,102653.69
2022-11-27T00:13:53.062Z,102643.16
2022-11-27T00:16:21.196Z,102646.69
2022-11-27T00:18:50.435Z,102637.97
2022-11-27T00:21:22.353Z,102633.66
2022-11-27T00:23:49.590Z,102624.06
2022-11-27T00:26:16.216Z,102624.09
2022-11-27T00:28:42.981Z,102623.22
2022-11-27T00:31:27.212Z,102630.16
2022-11-27T00:33:59.379Z,102619.72
2022-11-27T00:36:28.016Z,102617.97
2022-11-27T00:38:55.184Z,102613.63
2022-11-27T00:41:26.407Z,102617.97
2022-11-27T00:43:54.083Z,102617.97
2022-11-27T00:46:28.079Z,102608.38
2022-11-27T00:48:55.685Z,102615.50
2022-11-27T00:51:23.948Z,102617.19
2022-11-27T00:53:50.922Z,102618.91
2022-11-27T00:56:23.361Z,102613.75
2022-11-27T00:58:50.653Z,102613.75
2022-11-27T01:01:23.024Z,102605.06
2022-11-27T01:03:50.059Z,102604.16
2022-11-27T01:06:18.115Z,102603.28
2022-11-27T01:08:45.121Z,102605.94
2022-11-27T01:11:17.336Z,102601.66
2022-11-27T01:13:44.197Z,102596.38
2022-11-27T01:16:17.326Z,102599.06
2022-11-27T01:18:46.164Z,102597.31
2022-11-27T01:21:13.763Z,102587.69
2022-11-27T01:23:40.238Z,102579.88
2022-11-27T01:26:09.370Z,102585.13
2022-11-27T01:28:36.448Z,102574.66
2022-11-27T01:31:09.286Z,102564.19
2022-11-27T01:33:35.730Z,102568.69
2022-11-27T01:36:04.949Z,102564.31
2022-11-27T01:38:31.937Z,102575.66
2022-11-27T01:41:08.956Z,102572.22
2022-11-27T01:43:59.595Z,102564.34
2022-11-27T01:46:34.969Z,102561.72
2022-11-27T01:49:10.677Z,102551.25
2022-11-27T01:51:45.686Z,102544.22
2022-11-27T01:54:13.599Z,102539.91
2022-11-27T01:56:43.388Z,102533.03
2022-11-27T01:59:12.627Z,102520.88
2022-11-27T02:01:39.017Z,102519.97
2022-11-27T02:04:05.546Z,102517.38
2022-11-27T02:06:31.984Z,102510.38
2022-11-27T02:09:01.518Z,102495.56
2022-11-27T02:11:50.887Z,102497.28
2022-11-27T02:14:55.760Z,102510.41
2022-11-27T02:17:47.217Z,102490.31
2022-11-27T02:20:24.096Z,102475.44
2022-11-27T02:23:09.469Z,102476.38
2022-11-27T02:26:05.388Z,102468.63
2022-11-27T02:28:44.592Z,102469.47
2022-11-27T02:31:40.703Z,102477.38
2022-11-27T02:34:25.488Z,102482.56
2022-11-27T02:37:14.039Z,102488.69
2022-11-27T02:40:01.410Z,102486.16
2022-11-27T02:42:31.202Z,102500.09
2022-11-27T02:45:08.099Z,102490.56
2022-11-27T02:47:35.097Z,102488.81
2022-11-27T02:50:03.605Z,102483.50
2022-11-27T02:52:31.522Z,102484.44
2022-11-27T02:55:03.353Z,102480.88
2022-11-27T02:57:35.087Z,102477.38
2022-11-27T03:00:02.232Z,102475.63
2022-11-27T03:02:34.996Z,102480.88
2022-11-27T03:05:05.421Z,102473.91
2022-11-27T03:07:51.486Z,102483.59
2022-11-27T03:10:27.579Z,102470.53
2022-11-27T03:12:54.355Z,102470.53
2022-11-27T03:15:23.006Z,102467.91
2022-11-27T03:17:55.512Z,102461.00
2022-11-27T03:20:25.739Z,102478.47
2022-11-27T03:22:57.945Z,102467.16
2022-11-27T03:25:25.031Z,102479.34
2022-11-27T03:28:12.739Z,102490.69
2022-11-27T03:30:41.156Z,102478.41
2022-11-27T03:33:10.575Z,102482.78
2022-11-27T03:35:37.772Z,102481.94
2022-11-27T03:38:04.388Z,102481.09
2022-11-27T03:40:45.015Z,102468.09
2022-11-27T03:43:23.130Z,102460.25
2022-11-27T03:46:00.181Z,102470.72
2022-11-27T03:48:33.777Z,102450.72
2022-11-27T03:51:12.500Z,102451.50
2022-11-27T03:54:05.435Z,102455.00
2022-11-27T03:56:54.032Z,102444.59
2022-11-27T03:59:25.496Z,102442.84
2022-11-27T04:01:52.254Z,102437.59
2022-11-27T04:04:18.929Z,102441.97
2022-11-27T04:06:45.588Z,102444.53
2022-11-27T04:09:12.155Z,102445.41
2022-11-27T04:11:38.667Z,102435.88
2022-11-27T04:14:08.307Z,102434.97
2022-11-27T04:16:34.854Z,102461.19
2022-11-27T04:19:01.369Z,102465.50
2022-11-27T04:21:27.954Z,102456.78
2022-11-27T04:23:54.403Z,102446.34
2022-11-27T04:26:20.855Z,102453.31
2022-11-27T04:28:47.610Z,102456.75
2022-11-27T04:31:14.485Z,102449.75
2022-11-27T04:33:41.036Z,102444.53
2022-11-27T04:36:10.470Z,102445.34
2022-11-27T04:38:38.628Z,102448.84
2022-11-27T04:41:05.496Z,102433.06
2022-11-27T04:43:32.144Z,102433.06
2022-11-27T04:45:58.634Z,102428.69
2022-11-27T04:48:25.060Z,102422.59
2022-11-27T04:50:51.652Z,102426.00
2022-11-27T04:53:18.044Z,102419.00
2022-11-27T04:55:44.541Z,102418.16
2022-11-27T04:58:11.008Z,102419.84
2022-11-27T05:00:37.721Z,102410.25
2022-11-27T05:03:04.297Z,102404.09
2022-11-27T05:05:30.774Z,102397.94
2022-11-27T05:08:00.067Z,102398.78
2022-11-27T05:10:26.915Z,102391.66
2022-11-27T05:12:53.443Z,102388.09
2022-11-27T05:15:22.609Z,102384.63
2022-11-27T05:17:49.168Z,102385.47
2022-11-27T05:20:15.708Z,102376.84
2022-11-27T05:22:42.243Z,102384.53
2022-11-27T05:25:09.244Z,102380.13
2022-11-27T05:27:35.929Z,102367.00
2022-11-27T05:30:02.566Z,102372.16
2022-11-27T05:32:29.357Z,102365.22
2022-11-27T05:34:55.946Z,102358.34
2022-11-27T05:37:22.558Z,102365.31
2022-11-27T05:39:49.025Z,102359.16
2022-11-27T05:42:15.633Z,102352.94
2022-11-27T05:44:42.439Z,102353.84
2022-11-27T05:47:09.274Z,102359.03
2022-11-27T05:49:35.959Z,102350.31
2022-11-27T05:52:02.513Z,102357.34
2022-11-27T05:54:29.120Z,102351.31
2022-11-27T05:56:55.526Z,102342.50
2022-11-27T05:59:22.223Z,102351.13
2022-11-27T06:01:49.571Z,102349.38
2022-11-27T06:04:16.802Z,102343.31
2022-11-27T06:06:43.596Z,102350.31
2022-11-27T06:09:13.884Z,102345.03
2022-11-27T06:11:41.379Z,102348.56
2022-11-27T06:14:11.598Z,102346.84
2022-11-27T06:16:38.688Z,102344.16
2022-11-27T06:19:05.346Z,102345.94
2022-11-27T06:21:31.877Z,102347.69
2022-11-27T06:23:58.486Z,102342.44
2022-11-27T06:26:30.087Z,102338.09
2022-11-27T06:28:59.142Z,102334.53
2022-11-27T06:31:29.953Z,102327.56
2022-11-27T06:33:57.134Z,102329.34
2022-11-27T06:36:27.478Z,102323.28
2022-11-27T06:38:54.308Z,102322.25
2022-11-27T06:41:24.843Z,102313.56
2022-11-27T06:43:51.673Z,102313.56
2022-11-27T06:46:20.638Z,102309.22
2022-11-27T06:48:48.625Z,102307.47
2022-11-27T06:51:18.020Z,102314.41
2022-11-27T06:53:45.115Z,102311.91
2022-11-27T06:56:14.789Z,102316.25
2022-11-27T06:58:41.621Z,102311.88
2022-11-27T07:01:12.175Z,102311.78
2022-11-27T07:03:39.304Z,102315.31
2022-11-27T07:06:07.936Z,102312.69
2022-11-27T07:08:35.517Z,102304.88
2022-11-27T07:11:07.755Z,102297.91
2022-11-27T07:13:35.688Z,102295.28
2022-11-27T07:16:04.964Z,102290.91
2022-11-27T07:18:37.164Z,102285.69
2022-11-27T07:21:04.166Z,102289.09
2022-11-27T07:23:30.741Z,102269.06
2022-11-27T07:25:59.536Z,102270.81
2022-11-27T07:28:26.361Z,102274.31
2022-11-27T07:30:57.003Z,102267.34
2022-11-27T07:33:24.285Z,102261.25
2022-11-27T07:35:57.917Z,102253.44
2022-11-27T07:38:24.416Z,102255.22
2022-11-27T07:40:52.734Z,102256.00
2022-11-27T07:43:20.536Z,102256.03
2022-11-27T07:45:47.698Z,102245.63
2022-11-27T07:48:14.280Z,102240.38
2022-11-27T07:50:41.203Z,102249.03
2022-11-27T07:53:10.930Z,102241.09
2022-11-27T07:55:41.917Z,102250.75
2022-11-27T07:58:08.967Z,102242.81
2022-11-27T08:00:36.132Z,102246.41
2022-11-27T08:03:02.946Z,102239.44
2022-11-27T08:05:29.885Z,102248.13
2022-11-27T08:07:59.582Z,102245.44
2022-11-27T08:10:26.245Z,102242.88
2022-11-27T08:12:53.000Z,102247.16
2022-11-27T08:15:19.711Z,102238.38
2022-11-27T08:17:46.810Z,102232.22
2022-11-27T08:20:13.430Z,102227.88
2022-11-27T08:22:40.045Z,102228.72
2022-11-27T08:25:07.007Z,102220.75
2022-11-27T08:27:33.558Z,102226.88
2022-11-27T08:30:02.650Z,102221.63
2022-11-27T08:32:29.120Z,102222.34
2022-11-27T08:34:55.715Z,102221.56
2022-11-27T08:37:22.285Z,102234.72
2022-11-27T08:39:49.833Z,102239.09
2022-11-27T08:42:16.408Z,102240.81
2022-11-27T08:44:43.373Z,102229.38
2022-11-27T08:47:10.036Z,102225.75
2022-11-27T08:49:43.630Z,102226.63
2022-11-27T08:52:12.712Z,102228.44
2022-11-27T08:54:39.421Z,102221.47
2022-11-27T08:57:06.151Z,102221.50
2022-11-27T08:59:32.643Z,102231.09
2022-11-27T09:01:59.151Z,102236.34
2022-11-27T09:04:25.567Z,102234.66
2022-11-27T09:06:57.963Z,102238.06
2022-11-27T09:09:25.002Z,102223.19
2022-11-27T09:11:51.437Z,102234.63
2022-11-27T09:14:17.916Z,102226.63
2022-11-27T09:16:44.443Z,102234.34
2022-11-27T09:19:10.912Z,102228.19
2022-11-27T09:21:38.806Z,102221.19
2022-11-27T09:24:05.593Z,102210.84
2022-11-27T09:26:32.020Z,102216.03
2022-11-27T09:28:59.515Z,102216.88
2022-11-27T09:31:26.387Z,102212.56
2022-11-27T09:33:56.574Z,102213.28
2022-11-27T09:36:25.773Z,102218.53
2022-11-27T09:38:53.191Z,102208.19
2022-11-27T09:41:19.608Z,102215.19
2022-11-27T09:43:56.884Z,102211.63
2022-11-27T09:46:35.034Z,102204.59
2022-11-27T09:49:04.525Z,102209.94
2022-11-27T09:51:55.014Z,102199.66
2022-11-27T09:54:33.467Z,102196.97
2022-11-27T09:57:00.329Z,102194.22
2022-11-27T09:59:37.334Z,102186.38
2022-11-27T10:02:03.936Z,102186.44
2022-11-27T10:04:45.136Z,102180.34
2022-11-27T10:07:37.797Z,102174.16
2022-11-27T10:10:28.131Z,102182.88
2022-11-27T10:13:14.914Z,102175.06
2022-11-27T10:15:54.450Z,102167.25
2022-11-27T10:18:39.747Z,102171.44
2022-11-27T10:21:17.735Z,102166.28
2022-11-27T10:24:10.455Z,102166.28
2022-11-27T10:26:39.743Z,102153.13
2022-11-27T10:29:29.870Z,102149.69
2022-11-27T10:32:52.780Z,102154.94
2022-11-27T10:35:15.149Z,102149.69
2022-11-27T10:37:53.961Z,102151.34
2022-11-27T10:40:31.608Z,102147.78
2022-11-27T10:43:17.538Z,102140.84
2022-11-27T10:45:55.839Z,102142.53
2022-11-27T10:48:23.019Z,102137.28
2022-11-27T10:50:50.350Z,102136.34
2022-11-27T10:53:34.659Z,102122.34
2022-11-27T10:56:16.248Z,102116.09
2022-11-27T10:58:55.242Z,102111.78
2022-11-27T11:01:26.611Z,102109.94
2022-11-27T11:04:31.209Z,102103.78
2022-11-27T11:06:53.915Z,102102.91
2022-11-27T11:09:22.499Z,102101.19
2022-11-27T11:11:49.390Z,102099.44
2022-11-27T11:14:20.451Z,102082.00
2022-11-27T11:16:49.317Z,102083.69
2022-11-27T11:19:25.284Z,102090.75
2022-11-27T11:21:52.393Z,102082.75
2022-11-27T11:24:28.590Z,102074.88
2022-11-27T11:27:01.107Z,102064.28
2022-11-27T11:29:30.614Z,102066.00
2022-11-27T11:32:02.888Z,102052.88
2022-11-27T11:34:31.066Z,102043.31
2022-11-27T11:37:04.304Z,102044.13
2022-11-27T11:39:34.994Z,102046.75
2022-11-27T11:42:09.052Z,102040.53
2022-11-27T11:44:40.332Z,102038.81
2022-11-27T11:47:23.073Z,102036.13
2022-11-27T11:49:50.890Z,102030.03
2022-11-27T11:52:36.002Z,102030.03
2022-11-27T11:55:23.047Z,102025.66
2022-11-27T11:58:10.286Z,102022.13
2022-11-27T12:01:04.836Z,102015.28
2022-11-27T12:04:03.109Z,102016.00
2022-11-27T12:06:44.313Z,102013.34
2022-11-27T12:09:35.568Z,102009.78
2022-11-27T12:12:21.420Z,101996.66
2022-11-27T12:14:51.082Z,101994.88
2022-11-27T12:17:46.949Z,101981.75
2022-11-27T12:20:17.415Z,101991.34
2022-11-27T12:22:43.827Z,101982.66
2022-11-27T12:25:43.980Z,101970.44
2022-11-27T12:28:22.378Z,101958.28
2022-11-27T12:31:02.902Z,101950.25
2022-11-27T12:33:48.374Z,101948.59
2022-11-27T12:36:38.353Z,101938.97
2022-11-27T12:39:13.960Z,101945.81
2022-11-27T12:41:54.462Z,101946.66
2022-11-27T12:44:45.985Z,101951.97
2022-11-27T12:47:28.253Z,101950.19
2022-11-27T12:50:12.661Z,101936.97
2022-11-27T12:52:44.370Z,101936.06
2022-11-27T12:55:23.222Z,101922.00
2022-11-27T12:57:54.463Z,101920.22
2022-11-27T13:00:24.223Z,101919.31
2022-11-27T13:02:57.503Z,101912.34
2022-11-27T13:05:33.896Z,101912.47
2022-11-27T13:08:34.069Z,101918.63
2022-11-27T13:11:17.399Z,101916.00
2022-11-27T13:13:47.957Z,101913.38
2022-11-27T13:16:21.791Z,101908.00
2022-11-27T13:19:12.582Z,101902.66
2022-11-27T13:21:42.735Z,101900.94
2022-11-27T13:24:14.077Z,101900.81
2022-11-27T13:26:50.215Z,101896.53
2022-11-27T13:29:29.090Z,101893.84
2022-11-27T13:32:00.282Z,101887.69
2022-11-27T13:34:32.567Z,101891.97
2022-11-27T13:37:02.872Z,101886.66
2022-11-27T13:39:38.513Z,101883.28
2022-11-27T13:42:22.319Z,101878.03
2022-11-27T13:45:03.666Z,101872.72
2022-11-27T13:47:37.911Z,101873.69
2022-11-27T13:50:12.523Z,101875.47
2022-11-27T13:53:00.024Z,101868.28
2022-11-27T13:55:28.909Z,101853.50
2022-11-27T13:57:59.902Z,101856.91
2022-11-27T14:00:40.721Z,101838.56
2022-11-27T14:03:20.429Z,101835.09
2022-11-27T14:05:49.039Z,101835.16
2022-11-27T14:08:34.632Z,101831.66
2022-11-27T14:11:05.801Z,101827.28
2022-11-27T14:13:40.447Z,101829.78
2022-11-27T14:16:34.699Z,101827.97
2022-11-27T14:19:04.726Z,101813.97
2022-11-27T14:21:38.316Z,101819.22
2022-11-27T14:24:23.485Z,101814.94
2022-11-27T14:26:49.992Z,101818.38
2022-11-27T14:29:16.479Z,101814.84
2022-11-27T14:31:43.503Z,101800.09
2022-11-27T14:34:29.028Z,101804.38
2022-11-27T14:36:58.610Z,101805.25
2022-11-27T14:39:30.078Z,101799.22
2022-11-27T14:42:08.201Z,101788.72
2022-11-27T14:44:35.107Z,101793.00
2022-11-27T14:47:05.670Z,101780.91
2022-11-27T14:49:33.623Z,101777.44
2022-11-27T14:52:04.448Z,101779.25
2022-11-27T14:54:36.800Z,101771.41
2022-11-27T14:57:05.095Z,101773.22
2022-11-27T14:59:31.834Z,101766.28
2022-11-27T15:02:19.983Z,101765.34
2022-11-27T15:04:47.920Z,101761.03
2022-11-27T15:07:22.062Z,101766.38
2022-11-27T15:10:00.273Z,101758.41
2022-11-27T15:12:30.156Z,101760.09
2022-11-27T15:14:59.257Z,101762.78
2022-11-27T15:17:28.962Z,101766.28
2022-11-27T15:19:59.998Z,101765.41
2022-11-27T15:22:26.457Z,101755.72
2022-11-27T15:25:07.955Z,101753.03
2022-11-27T15:27:47.778Z,101747.72
2022-11-27T15:30:18.996Z,101749.56
2022-11-27T15:32:53.263Z,101743.59
2022-11-27T15:35:24.180Z,101735.78
2022-11-27T15:37:51.628Z,101733.94
2022-11-27T15:40:29.834Z,101722.59
2022-11-27T15:42:56.477Z,101719.91
2022-11-27T15:45:23.424Z,101713.94
2022-11-27T15:48:00.203Z,101702.59
2022-11-27T15:50:27.029Z,101705.28
2022-11-27T15:52:55.092Z,101697.38
2022-11-27T15:55:21.761Z,101704.25
2022-11-27T15:57:48.343Z,101700.75
2022-11-27T16:00:15.487Z,101705.28
2022-11-27T16:02:41.982Z,101700.97
2022-11-27T16:05:08.943Z,101712.22
2022-11-27T16:07:35.692Z,101702.59
2022-11-27T16:10:02.303Z,101700.81
2022-11-27T16:12:28.720Z,101703.44
2022-11-27T16:14:55.149Z,101698.19
2022-11-27T16:17:21.929Z,101699.19
2022-11-27T16:19:48.381Z,101686.00
2022-11-27T16:22:14.858Z,101682.69
2022-11-27T16:24:41.511Z,101679.19
2022-11-27T16:27:08.134Z,101676.56
2022-11-27T16:29:34.544Z,101674.06
2022-11-27T16:32:04.465Z,101671.56
2022-11-27T16:34:30.940Z,101666.28
2022-11-27T16:36:59.890Z,101664.56
2022-11-27T16:39:26.346Z,101655.78
2022-11-27T16:41:52.814Z,101652.34
2022-11-27T16:44:19.417Z,101646.22
2022-11-27T16:46:45.975Z,101646.28
2022-11-27T16:49:13.220Z,101639.25
2022-11-27T16:51:40.148Z,101641.03
2022-11-27T16:54:09.985Z,101637.47
2022-11-27T16:56:38.396Z,101635.78
2022-11-27T16:59:13.183Z,101623.53
2022-11-27T17:01:41.701Z,101629.59
2022-11-27T17:04:10.182Z,101627.91
2022-11-27T17:06:38.051Z,101624.44
2022-11-27T17:09:10.142Z,101620.06
2022-11-27T17:11:40.887Z,101613.22
2022-11-27T17:14:11.089Z,101613.09
2022-11-27T17:16:42.724Z,101611.38
2022-11-27T17:19:12.709Z,101605.34
2022-11-27T17:21:39.895Z,101607.94
2022-11-27T17:24:14.765Z,101611.38
2022-11-27T17:26:43.407Z,101610.47
2022-11-27T17:29:11.878Z,101606.94
2022-11-27T17:31:38.842Z,101606.88
2022-11-27T17:34:06.106Z,101599.84
2022-11-27T17:36:36.841Z,101598.09
2022-11-27T17:39:05.384Z,101606.94
2022-11-27T17:41:31.973Z,101586.88
2022-11-27T17:43:58.447Z,101579.78
2022-11-27T17:46:27.569Z,101589.44
2022-11-27T17:48:55.528Z,101581.63
2022-11-27T17:51:22.090Z,101585.16
2022-11-27T17:53:48.875Z,101575.53
2022-11-27T17:56:17.836Z,101567.56
2022-11-27T17:58:45.092Z,101566.75
2022-11-27T18:01:20.627Z,101566.69
2022-11-27T18:03:47.878Z,101563.22
2022-11-27T18:06:15.810Z,101561.44
2022-11-27T18:08:42.481Z,101558.03
2022-11-27T18:11:16.384Z,101552.72
2022-11-27T18:13:43.443Z,101551.88
2022-11-27T18:16:13.172Z,101543.88
2022-11-27T18:18:40.642Z,101543.09
2022-11-27T18:21:11.848Z,101540.41
2022-11-27T18:24:14.549Z,101531.69
2022-11-27T18:26:52.448Z,101525.53
2022-11-27T18:29:16.172Z,101530.91
2022-11-27T18:31:42.634Z,101526.50
2022-11-27T18:34:09.309Z,101527.34
2022-11-27T18:36:35.712Z,101523.88
2022-11-27T18:39:03.700Z,101520.34
2022-11-27T18:41:30.133Z,101515.22
2022-11-27T18:43:58.959Z,101518.72
2022-11-27T18:46:25.569Z,101512.50
2022-11-27T18:48:52.226Z,101508.09
2022-11-27T18:51:23.776Z,101504.81
2022-11-27T18:53:51.151Z,101506.53
2022-11-27T18:56:21.413Z,101496.94
2022-11-27T18:58:48.908Z,101491.63
2022-11-27T19:01:23.883Z,101489.81
2022-11-27T19:03:50.953Z,101483.75
2022-11-27T19:06:19.009Z,101474.34
2022-11-27T19:08:45.704Z,101486.47
2022-11-27T19:11:18.194Z,101478.66
2022-11-27T19:13:46.041Z,101473.41
2022-11-27T19:16:18.911Z,101474.25
2022-11-27T19:18:46.355Z,101485.63
2022-11-27T19:21:18.281Z,101476.84
2022-11-27T19:23:44.901Z,101468.91
2022-11-27T19:26:21.398Z,101468.00
2022-11-27T19:28:52.667Z,101463.72
2022-11-27T19:31:20.100Z,101459.47
2022-11-27T19:33:52.475Z,101459.47
2022-11-27T19:36:19.390Z,101466.34
2022-11-27T19:38:45.764Z,101455.00
2022-11-27T19:41:17.633Z,101456.72
2022-11-27T19:43:45.059Z,101456.78
2022-11-27T19:46:16.375Z,101447.13
2022-11-27T19:48:43.214Z,101435.88
2022-11-27T19:51:10.286Z,101446.28
2022-11-27T19:53:37.743Z,101431.28
2022-11-27T19:56:05.399Z,101424.34
2022-11-27T19:58:32.476Z,101425.09
2022-11-27T20:01:06.633Z,101420.91
2022-11-27T20:03:33.114Z,101411.34
2022-11-27T20:06:04.397Z,101420.91
2022-11-27T20:08:30.766Z,101404.41
2022-11-27T20:10:59.531Z,101403.47
2022-11-27T20:13:26.206Z,101395.56
2022-11-27T20:15:53.173Z,101386.13
2022-11-27T20:18:20.317Z,101386.06
2022-11-27T20:20:46.975Z,101391.31
2022-11-27T20:23:14.577Z,101373.00
2022-11-27T20:25:41.987Z,101375.72
2022-11-27T20:28:13.667Z,101371.44
2022-11-27T20:30:41.120Z,101366.13
2022-11-27T20:33:08.075Z,101363.59
2022-11-27T20:35:34.671Z,101361.94
2022-11-27T20:38:01.140Z,101360.97
2022-11-27T20:40:28.460Z,101360.88
2022-11-27T20:42:54.878Z,101356.59
2022-11-27T20:45:21.494Z,101357.25
2022-11-27T20:47:47.994Z,101348.38
2022-11-27T20:50:14.494Z,101347.50
2022-11-27T20:52:40.975Z,101336.31
2022-11-27T20:55:07.795Z,101340.63
2022-11-27T20:57:34.453Z,101332.66
2022-11-27T21:00:00.818Z,101330.22
2022-11-27T21:02:28.804Z,101327.69
2022-11-27T21:04:55.309Z,101329.44
2022-11-27T21:07:21.805Z,101325.06
2022-11-27T21:09:48.342Z,101334.63
2022-11-27T21:12:15.561Z,101328.59
2022-11-27T21:14:43.861Z,101325.13
2022-11-27T21:17:10.373Z,101317.31
2022-11-27T21:19:36.791Z,101313.78
2022-11-27T21:22:03.251Z,101305.00
2022-11-27T21:24:29.855Z,101313.72
2022-11-27T21:26:58.634Z,101310.31
2022-11-27T21:29:27.656Z,101308.63
2022-11-27T21:31:55.245Z,101306.00
2022-11-27T21:34:21.877Z,101305.19
2022-11-27T21:36:51.049Z,101306.13
2022-11-27T21:39:20.623Z,101295.72
2022-11-27T21:41:52.935Z,101293.09
2022-11-27T21:44:20.365Z,101299.97
2022-11-27T21:46:47.594Z,101297.34
2022-11-27T21:49:15.711Z,101290.28
2022-11-27T21:51:42.162Z,101287.78
2022-11-27T21:54:14.166Z,101280.69
2022-11-27T21:56:41.317Z,101279.91
2022-11-27T21:59:15.450Z,101271.28
2022-11-27T22:01:44.582Z,101280.06
2022-11-27T22:04:11.574Z,101269.72
2022-11-27T22:06:40.641Z,101278.34
2022-11-27T22:09:13.405Z,101278.28
2022-11-27T22:11:41.741Z,101266.03
2022-11-27T22:14:08.627Z,101255.63
2022-11-27T22:16:42.906Z,101259.94
2022-11-27T22:19:11.171Z,101247.53
2022-11-27T22:21:37.560Z,101251.31
2022-11-27T22:24:04.185Z,101244.28
2022-11-27T22:26:30.622Z,101241.53
2022-11-27T22:29:00.055Z,101232.72
2022-11-27T22:31:33.833Z,101218.72
2022-11-27T22:34:01.369Z,101220.41
2022-11-27T22:36:32.817Z,101217.88
2022-11-27T22:39:01.765Z,101215.31
2022-11-27T22:41:30.242Z,101206.69
2022-11-27T22:43:58.746Z,101202.28
2022-11-27T22:46:28.554Z,101197.91
2022-11-27T22:48:58.111Z,101191.78
2022-11-27T22:51:26.139Z,101193.41
2022-11-27T22:53:52.609Z,101192.50
2022-11-27T22:56:19.206Z,101187.25
2022-11-27T22:58:45.797Z,101178.63
2022-11-27T23:01:22.039Z,101190.88
2022-11-27T23:03:48.705Z,101194.50
2022-11-27T23:06:17.262Z,101196.34
2022-11-27T23:08:45.466Z,101188.53
2022-11-27T23:11:15.567Z,101186.72
2022-11-27T23:13:48.024Z,101180.63
2022-11-27T23:16:16.796Z,101182.38
2022-11-27T23:18:43.251Z,101178.84
2022-11-27T23:21:17.199Z,101175.31
2022-11-27T23:23:43.943Z,101172.81
2022-11-27T23:26:17.555Z,101180.63
2022-11-27T23:28:45.778Z,101180.56
2022-11-27T23:31:34.593Z,101172.59
2022-11-27T23:34:04.386Z,101171.81
2022-11-27T23:36:32.009Z,101166.56
2022-11-27T23:39:02.783Z,101163.91
2022-11-27T23:41:30.021Z,101150.84
2022-11-27T23:43:57.267Z,101154.41
2022-11-27T23:46:26.641Z,101153.63
2022-11-27T23:49:00.062Z,101156.41
2022-11-27T23:51:29.630Z,101147.59
2022-11-27T23:53:57.744Z,101151.81
2022-11-27T23:56:26.745Z,101151.81
2022-11-27T23:58:58.641Z,101150.09
